Time;durP1;ratioP1;P1;durP2;ratioP2;P2;SDS_P1;SDS_P2;PMS_P1;PMS_P2;Temp;Humidity;BMP_temperature;BMP_pressure;BME280_temperature;BME280_humidity;BME280_pressure;Samples;Min_cycle;Max_cycle;Signal;HPM_P1;HPM_P2
2021/08/23 00:01:11;;;;;;;23.17;10.93;;;;;;;13.88;72.01;99877.44;5131890;27;20054;-74
2021/08/23 00:03:37;;;;;;;25.90;11.45;;;;;;;13.89;71.71;99872.03;5131990;27;20046;-76
2021/08/23 00:06:03;;;;;;;22.88;12.13;;;;;;;13.92;71.58;99873.56;5131716;27;20141;-75
2021/08/23 00:08:30;;;;;;;27.05;12.48;;;;;;;13.98;71.32;99873.03;5131957;27;20047;-71
2021/08/23 00:10:56;;;;;;;28.65;11.65;;;;;;;14.01;71.08;99869.25;5129186;27;20050;-73
2021/08/23 00:13:22;;;;;;;24.45;11.85;;;;;;;14.10;70.86;99872.91;5132167;27;20043;-72
2021/08/23 00:15:52;;;;;;;25.25;11.80;;;;;;;14.12;70.65;99877.13;5132390;27;20399;-73
2021/08/23 00:18:19;;;;;;;24.48;10.85;;;;;;;14.18;70.29;99875.72;5131716;27;20792;-74
2021/08/23 00:20:54;;;;;;;21.35;9.93;;;;;;;14.19;70.35;99867.63;5132184;27;20047;-72
2021/08/23 00:23:21;;;;;;;24.73;10.70;;;;;;;14.23;70.01;99873.47;5131759;27;20050;-72
2021/08/23 00:25:47;;;;;;;20.53;10.63;;;;;;;14.32;69.99;99871.84;5131828;27;20500;-76
2021/08/23 00:28:13;;;;;;;17.95;9.57;;;;;;;14.38;69.63;99876.59;5130861;27;20098;-76
2021/08/23 00:30:39;;;;;;;31.45;11.88;;;;;;;14.49;70.78;99875.63;5131871;27;20452;-76
2021/08/23 00:33:05;;;;;;;36.50;13.38;;;;;;;14.53;71.40;99883.19;5131966;28;20041;-75
2021/08/23 00:35:31;;;;;;;21.83;10.27;;;;;;;14.53;70.74;99882.38;5131379;27;20045;-74
2021/08/23 00:38:00;;;;;;;21.92;11.32;;;;;;;14.51;69.77;99881.66;5131333;27;20039;-75
2021/08/23 00:40:26;;;;;;;21.50;10.77;;;;;;;14.43;69.68;99879.69;5131893;27;20139;-74
2021/08/23 00:42:52;;;;;;;20.60;10.98;;;;;;;14.40;69.62;99885.28;5131652;28;20138;-77
2021/08/23 00:45:22;;;;;;;21.67;10.57;;;;;;;14.30;69.70;99890.56;5131730;28;20483;-75
2021/08/23 00:47:49;;;;;;;18.17;9.65;;;;;;;14.35;69.71;99898.16;5130990;27;20047;-76
2021/08/23 00:50:15;;;;;;;21.40;11.07;;;;;;;14.28;70.13;99903.19;5132175;27;20131;-75
2021/08/23 00:52:41;;;;;;;23.00;10.32;;;;;;;14.23;70.65;99900.06;5130644;28;20134;-76
2021/08/23 00:55:07;;;;;;;21.05;9.80;;;;;;;14.21;71.03;99904.72;5132137;27;20046;-76
2021/08/23 00:57:35;;;;;;;23.42;10.68;;;;;;;14.18;71.34;99903.16;5130767;27;20514;-72
2021/08/23 01:00:01;;;;;;;18.00;9.50;;;;;;;14.12;71.18;99908.16;5130436;28;20061;-74
2021/08/23 01:02:32;;;;;;;21.85;10.02;;;;;;;14.14;71.54;99906.22;5131209;27;20474;-76
2021/08/23 01:05:05;;;;;;;24.65;9.45;;;;;;;14.15;71.36;99907.91;5130596;28;20126;-75
2021/08/23 01:07:36;;;;;;;16.33;8.77;;;;;;;14.18;70.83;99908.50;5129877;28;20091;-76
2021/08/23 01:10:07;;;;;;;18.00;8.77;;;;;;;14.19;70.74;99911.97;5123725;27;20566;-74
2021/08/23 01:12:34;;;;;;;16.70;8.75;;;;;;;14.20;70.92;99905.69;5135681;27;20051;-74
2021/08/23 01:14:59;;;;;;;22.30;9.35;;;;;;;14.29;71.55;99914.66;5135003;27;20516;-73
2021/08/23 01:17:25;;;;;;;19.17;9.30;;;;;;;14.37;71.64;99914.84;5135351;27;20035;-76
2021/08/23 01:19:56;;;;;;;22.38;10.73;;;;;;;14.38;72.29;99924.47;5119275;27;20096;-74
2021/08/23 01:22:21;;;;;;;18.77;8.80;;;;;;;14.28;72.33;99921.81;5135918;27;20095;-73
2021/08/23 01:24:52;;;;;;;17.33;8.95;;;;;;;14.23;72.29;99916.03;5135219;27;20039;-73
2021/08/23 01:27:18;;;;;;;18.25;9.60;;;;;;;14.20;72.61;99917.16;5134144;27;20054;-74
2021/08/23 01:29:49;;;;;;;22.10;9.90;;;;;;;14.19;72.69;99925.28;5134835;27;20069;-76
2021/08/23 01:32:18;;;;;;;19.30;10.02;;;;;;;14.09;72.98;99925.25;5135739;27;20043;-76
2021/08/23 01:34:45;;;;;;;18.50;9.95;;;;;;;13.99;72.90;99925.22;5134845;27;20058;-73
2021/08/23 01:37:13;;;;;;;21.27;9.63;;;;;;;13.95;73.39;99928.28;5134662;27;20049;-76
2021/08/23 01:39:40;;;;;;;20.63;9.60;;;;;;;13.94;73.49;99930.09;5133402;27;20050;-73
2021/08/23 01:42:06;;;;;;;20.75;9.20;;;;;;;13.97;74.00;99931.63;5135097;27;20050;-75
2021/08/23 01:44:31;;;;;;;18.63;9.25;;;;;;;13.96;73.58;99932.63;5135017;27;20039;-74
2021/08/23 01:46:57;;;;;;;24.65;9.32;;;;;;;13.94;73.59;99943.38;5135017;27;20043;-76
2021/08/23 01:49:23;;;;;;;21.38;9.77;;;;;;;13.84;73.68;99942.50;5134133;27;20027;-76
2021/08/23 01:51:49;;;;;;;24.20;9.25;;;;;;;13.81;73.54;99937.47;5134361;27;20494;-74
2021/08/23 01:54:26;;;;;;;20.48;8.65;;;;;;;13.81;73.29;99943.63;5134610;27;20053;-74
2021/08/23 01:56:52;;;;;;;16.70;8.43;;;;;;;13.90;73.29;99939.31;5134964;27;20039;-74
2021/08/23 01:59:18;;;;;;;16.55;7.78;;;;;;;13.89;72.75;99940.28;5131434;27;20043;-74
2021/08/23 02:01:43;;;;;;;13.88;7.40;;;;;;;13.88;72.30;99936.81;5124781;27;20035;-76
2021/08/23 02:04:10;;;;;;;16.60;8.00;;;;;;;13.87;72.19;99936.94;5133901;27;20146;-73
2021/08/23 02:06:35;;;;;;;17.33;7.57;;;;;;;13.89;72.17;99945.59;5133821;27;20039;-74
2021/08/23 02:09:03;;;;;;;16.55;8.85;;;;;;;13.87;71.71;99936.94;5133809;27;20103;-73
2021/08/23 02:11:29;;;;;;;23.15;7.68;;;;;;;13.91;72.08;99944.50;5126984;27;20031;-73
2021/08/23 02:13:55;;;;;;;15.70;7.18;;;;;;;13.97;71.78;99943.13;5134097;27;20049;-72
2021/08/23 02:16:22;;;;;;;23.88;8.93;;;;;;;14.04;72.22;99938.97;5134178;27;20059;-73
2021/08/23 02:18:47;;;;;;;19.20;9.20;;;;;;;14.04;73.00;99940.78;5133319;27;20491;-75
2021/08/23 02:21:14;;;;;;;15.25;8.30;;;;;;;13.99;72.90;99940.34;5133434;27;20031;-72
2021/08/23 02:23:41;;;;;;;17.48;8.93;;;;;;;13.97;73.67;99948.47;5134115;27;20046;-73
2021/08/23 02:26:07;;;;;;;15.23;7.35;;;;;;;13.91;73.40;99949.00;5134211;27;20088;-78
2021/08/23 02:28:33;;;;;;;20.20;8.43;;;;;;;13.81;72.92;99953.44;5133028;27;20140;-77
2021/08/23 02:30:59;;;;;;;15.88;7.15;;;;;;;13.74;72.06;99947.78;5126127;27;20135;-75
2021/08/23 02:33:25;;;;;;;16.48;7.55;;;;;;;13.65;72.20;99952.06;5133062;27;20039;-73
2021/08/23 02:35:51;;;;;;;17.35;7.32;;;;;;;13.56;72.62;99944.91;5133435;27;20031;-77
2021/08/23 02:38:16;;;;;;;13.98;7.40;;;;;;;13.50;73.26;99950.72;5133853;27;20055;-74
2021/08/23 02:40:42;;;;;;;15.95;7.95;;;;;;;13.39;73.22;99963.09;5133293;27;20039;-75
2021/08/23 02:43:08;;;;;;;20.52;9.00;;;;;;;13.38;73.68;99956.13;5132338;27;20115;-74
2021/08/23 02:45:34;;;;;;;18.23;8.18;;;;;;;13.29;73.68;99956.84;5133476;27;20045;-77
2021/08/23 02:47:59;;;;;;;18.27;8.70;;;;;;;13.20;74.08;99954.97;5134074;27;20035;-75
2021/08/23 02:50:25;;;;;;;31.20;13.57;;;;;;;13.16;74.48;99961.50;5129622;27;20063;-74
2021/08/23 02:52:51;;;;;;;20.50;9.43;;;;;;;13.14;74.07;99952.84;5127828;27;20039;-75
2021/08/23 02:55:17;;;;;;;17.10;7.75;;;;;;;13.08;74.24;99960.34;5133230;27;20122;-75
2021/08/23 02:57:43;;;;;;;16.52;7.97;;;;;;;13.08;74.44;99967.44;5133126;27;20062;-76
2021/08/23 03:00:09;;;;;;;18.48;8.80;;;;;;;13.06;74.53;99959.63;5132811;27;20085;-75
2021/08/23 03:02:35;;;;;;;24.55;8.88;;;;;;;13.07;74.77;99971.06;5132892;27;20054;-77
2021/08/23 03:05:02;;;;;;;20.55;9.65;;;;;;;13.02;75.03;99963.50;5133455;27;20043;-80
2021/08/23 03:07:28;;;;;;;22.33;9.75;;;;;;;13.00;75.31;99965.44;5133658;27;20448;-77
2021/08/23 03:09:54;;;;;;;21.70;10.13;;;;;;;12.98;75.73;99966.53;5128258;27;20043;-77
2021/08/23 03:12:21;;;;;;;23.42;10.50;;;;;;;12.98;75.93;99970.00;5133050;27;20117;-74
2021/08/23 03:14:47;;;;;;;27.13;10.55;;;;;;;12.97;75.91;99967.50;5131945;27;20114;-77
2021/08/23 03:17:12;;;;;;;25.83;11.50;;;;;;;12.94;76.32;99964.13;5132594;27;20043;-76
2021/08/23 03:19:38;;;;;;;28.17;11.20;;;;;;;13.00;75.79;99969.91;5132589;27;21719;-77
2021/08/23 03:22:04;;;;;;;24.13;10.75;;;;;;;13.01;75.71;99961.81;5131307;27;20039;-75
2021/08/23 03:24:49;;;;;;;26.42;9.73;;;;;;;13.05;75.33;99976.50;5131882;27;20039;-75
2021/08/23 03:27:16;;;;;;;23.00;10.35;;;;;;;13.09;75.15;99972.63;5132403;27;20103;-75
2021/08/23 03:29:42;;;;;;;19.60;9.48;;;;;;;13.15;74.67;99968.63;5131175;27;20039;-77
2021/08/23 03:32:08;;;;;;;24.10;9.02;;;;;;;13.19;74.01;99974.53;5131216;27;20407;-76
2021/08/23 03:34:34;;;;;;;80.07;36.05;;;;;;;13.27;73.89;99978.22;5132045;27;20046;-75
2021/08/23 03:37:01;;;;;;;24.73;8.50;;;;;;;13.33;73.48;99976.84;5132427;27;20042;-74
2021/08/23 03:39:26;;;;;;;20.10;8.63;;;;;;;13.38;72.70;99974.72;5132100;27;20424;-75
2021/08/23 03:41:53;;;;;;;20.95;8.50;;;;;;;13.48;72.46;99973.91;5130846;27;20051;-76
2021/08/23 03:44:18;;;;;;;23.35;8.93;;;;;;;13.55;72.14;99967.94;5131317;27;20039;-78
2021/08/23 03:46:44;;;;;;;16.73;7.68;;;;;;;13.61;71.71;99969.25;5132269;27;20055;-75
2021/08/23 03:49:12;;;;;;;50.63;23.55;;;;;;;13.66;71.07;99971.53;5130536;27;20031;-75
2021/08/23 03:51:38;;;;;;;20.02;8.80;;;;;;;13.75;71.24;99971.56;5124453;27;20039;-74
2021/08/23 03:54:03;;;;;;;21.05;8.13;;;;;;;13.86;70.85;99973.31;5131967;27;20441;-74
2021/08/23 03:56:29;;;;;;;20.08;9.00;;;;;;;13.95;70.42;99974.31;5128764;27;20042;-73
2021/08/23 03:58:55;;;;;;;20.45;10.15;;;;;;;14.00;70.06;99980.09;5130414;27;20051;-77
2021/08/23 04:01:21;;;;;;;18.90;8.88;;;;;;;14.11;69.57;99973.00;5130642;27;20043;-74
2021/08/23 04:03:47;;;;;;;30.88;19.90;;;;;;;14.20;69.54;99972.19;5130844;27;20039;-72
2021/08/23 04:06:13;;;;;;;20.83;12.40;;;;;;;14.36;69.04;99985.00;5129508;27;20035;-74
2021/08/23 04:08:40;;;;;;;19.98;8.77;;;;;;;14.60;68.49;99986.47;5131065;27;20491;-74
2021/08/23 04:11:06;;;;;;;16.92;8.05;;;;;;;16.19;65.47;99974.56;5131913;27;20047;-74
2021/08/23 04:13:32;;;;;;;15.82;7.70;;;;;;;18.27;59.09;99982.38;5131434;27;20054;-76
2021/08/23 04:16:00;;;;;;;16.17;8.20;;;;;;;19.93;54.18;99978.03;5130384;27;20043;-78
2021/08/23 04:18:27;;;;;;;15.43;7.07;;;;;;;21.13;50.33;99981.50;5130739;27;20042;-75
2021/08/23 04:20:54;;;;;;;16.10;6.70;;;;;;;22.26;47.49;99981.59;5130971;27;20045;-76
2021/08/23 04:23:19;;;;;;;16.70;8.45;;;;;;;23.00;44.71;99985.16;5109487;28;20131;-76
2021/08/23 04:25:45;;;;;;;19.00;7.55;;;;;;;23.70;42.63;99983.50;5130436;27;20047;-79
2021/08/23 04:28:11;;;;;;;14.30;7.03;;;;;;;24.44;41.69;99981.22;5094788;27;20560;-78
2021/08/23 04:30:37;;;;;;;20.13;7.60;;;;;;;24.51;40.36;99982.09;5131097;27;20092;-75
2021/08/23 04:33:03;;;;;;;16.63;7.30;;;;;;;25.09;40.05;99982.69;5131348;27;20043;-79
2021/08/23 04:35:29;;;;;;;14.50;7.70;;;;;;;26.12;37.62;99984.94;5131492;28;20145;-76
2021/08/23 04:37:54;;;;;;;12.30;6.82;;;;;;;26.30;36.44;99973.41;5131752;28;20129;-76
2021/08/23 04:40:20;;;;;;;17.20;7.93;;;;;;;26.43;36.07;99979.81;5131456;28;20122;-78
2021/08/23 04:42:46;;;;;;;17.27;7.30;;;;;;;26.54;35.23;99981.84;5131296;28;20039;-80
2021/08/23 04:45:12;;;;;;;13.82;7.68;;;;;;;26.88;35.18;99982.53;5133219;27;20124;-76
2021/08/23 04:47:38;;;;;;;13.50;7.22;;;;;;;27.31;34.35;99983.69;5135297;27;20054;-81
2021/08/23 04:50:05;;;;;;;12.05;6.82;;;;;;;27.74;33.81;99982.94;5134540;27;20042;-77
2021/08/23 04:52:31;;;;;;;18.65;7.25;;;;;;;27.72;33.84;99985.03;5134644;27;20408;-76
2021/08/23 04:55:00;;;;;;;16.63;7.55;;;;;;;28.15;32.83;99988.81;5135606;27;20031;-78
2021/08/23 04:57:27;;;;;;;15.52;6.78;;;;;;;28.02;33.10;99987.03;5136305;27;20078;-76
2021/08/23 04:59:53;;;;;;;15.52;10.02;;;;;;;29.07;31.43;99984.25;5135629;27;20035;-75
2021/08/23 05:02:18;;;;;;;13.85;6.80;;;;;;;29.55;30.93;99985.19;5135602;27;20133;-82
2021/08/23 05:04:44;;;;;;;20.38;8.40;;;;;;;29.63;30.45;99987.53;5117170;27;20065;-80
2021/08/23 05:07:10;;;;;;;14.15;7.20;;;;;;;30.43;29.30;99996.13;5135961;27;20077;-77
2021/08/23 05:09:36;;;;;;;19.17;7.18;;;;;;;30.61;29.38;99994.31;5134048;27;20096;-79
2021/08/23 05:12:02;;;;;;;12.88;7.07;;;;;;;31.84;27.76;99992.03;5123976;27;20043;-79
2021/08/23 05:14:27;;;;;;;10.13;6.43;;;;;;;31.48;28.40;99983.25;5135269;27;20043;-76
2021/08/23 05:16:53;;;;;;;16.37;6.40;;;;;;;32.03;27.52;99989.84;5135183;27;20083;-78
2021/08/23 05:19:19;;;;;;;14.00;7.20;;;;;;;32.47;26.52;99989.03;5135214;27;20087;-75
2021/08/23 05:21:45;;;;;;;10.90;6.53;;;;;;;32.78;26.86;99989.41;5135827;27;20051;-76
2021/08/23 05:24:11;;;;;;;12.90;6.30;;;;;;;32.93;25.75;99981.31;5134895;27;20088;-76
2021/08/23 05:26:38;;;;;;;10.10;6.53;;;;;;;33.94;24.53;99988.97;5135371;27;20057;-78
2021/08/23 05:29:04;;;;;;;9.85;5.60;;;;;;;33.80;24.07;99994.09;5134558;27;20502;-79
2021/08/23 05:31:29;;;;;;;9.32;5.38;;;;;;;33.91;24.03;99987.59;5134436;27;20047;-78
2021/08/23 05:33:55;;;;;;;11.20;4.67;;;;;;;33.51;24.42;99992.53;5135207;27;20099;-80
2021/08/23 05:36:23;;;;;;;11.17;4.10;;;;;;;33.67;23.76;99996.19;5134630;27;20054;-78
2021/08/23 05:38:49;;;;;;;10.65;4.00;;;;;;;33.58;23.98;99991.47;5135339;27;20069;-75
2021/08/23 05:41:14;;;;;;;7.68;3.20;;;;;;;33.44;23.86;99986.44;5133810;27;20431;-80
2021/08/23 05:43:40;;;;;;;7.73;4.50;;;;;;;34.08;22.48;99983.81;5134863;27;20035;-78
2021/08/23 05:46:06;;;;;;;7.33;3.67;;;;;;;34.09;22.56;99990.97;5134119;27;20043;-78
2021/08/23 05:48:32;;;;;;;23.08;5.22;;;;;;;34.78;21.68;99986.25;5135646;27;20138;-81
2021/08/23 05:50:58;;;;;;;12.53;3.97;;;;;;;35.09;20.99;99992.66;5133339;27;20424;-83
2021/08/23 05:53:25;;;;;;;8.57;5.05;;;;;;;36.12;19.48;99980.69;5133848;27;20337;-81
2021/08/23 05:55:51;;;;;;;12.48;5.18;;;;;;;35.49;19.76;99981.91;5132634;27;20393;-79
2021/08/23 05:58:17;;;;;;;9.85;5.78;;;;;;;36.84;18.89;99980.31;5134294;27;20047;-79
2021/08/23 06:00:43;;;;;;;6.97;3.70;;;;;;;36.08;19.02;99985.91;5133645;27;20053;-81
2021/08/23 06:03:08;;;;;;;12.25;7.63;;;;;;;35.60;19.02;99988.22;5128965;27;20036;-79
2021/08/23 06:05:36;;;;;;;5.65;2.90;;;;;;;35.89;18.38;99993.97;5098321;28;20512;-80
2021/08/23 06:08:02;;;;;;;10.18;4.97;;;;;;;34.60;19.55;99985.66;5116779;27;20515;-79
2021/08/23 06:10:28;;;;;;;6.88;2.90;;;;;;;35.02;19.29;99985.75;5136239;27;20058;-82
2021/08/23 06:12:54;;;;;;;7.22;2.53;;;;;;;35.82;18.63;99987.09;5133645;27;20043;-77
2021/08/23 06:15:20;;;;;;;13.23;6.00;;;;;;;35.09;18.42;99991.81;5133835;27;20129;-80
2021/08/23 06:17:46;;;;;;;9.57;2.40;;;;;;;34.69;19.03;99987.91;5133165;27;20269;-84
2021/08/23 06:20:12;;;;;;;2.33;1.73;;;;;;;35.21;17.98;99978.63;5111788;28;20423;-82
2021/08/23 06:22:38;;;;;;;6.38;2.70;;;;;;;34.47;18.83;99987.03;5086409;27;20092;-79
2021/08/23 06:25:05;;;;;;;4.95;2.22;;;;;;;34.24;19.16;99985.53;5132279;27;20043;-79
2021/08/23 06:27:31;;;;;;;7.70;2.83;;;;;;;34.62;18.86;99985.38;5131820;27;20392;-80
2021/08/23 06:29:57;;;;;;;4.38;2.30;;;;;;;35.04;18.75;99987.13;5132381;27;20572;-80
2021/08/23 06:32:23;;;;;;;4.30;2.42;;;;;;;35.17;18.42;99994.03;5133229;27;20487;-78
2021/08/23 06:34:48;;;;;;;8.88;2.80;;;;;;;36.46;17.45;99996.50;5132985;27;20385;-78
2021/08/23 06:37:18;;;;;;;3.90;2.45;;;;;;;37.44;16.54;99995.84;5133311;27;20042;-81
2021/08/23 06:39:43;;;;;;;6.28;2.60;;;;;;;38.93;15.69;99992.41;5099110;27;20437;-81
2021/08/23 06:42:09;;;;;;;6.82;2.30;;;;;;;39.61;14.90;99990.97;5097204;27;20040;-84
2021/08/23 06:44:36;;;;;;;6.43;2.40;;;;;;;39.59;15.07;99998.78;5089868;27;20047;-81
2021/08/23 06:47:02;;;;;;;4.18;2.20;;;;;;;38.59;16.41;99999.78;5132218;27;20092;-75
2021/08/23 06:49:28;;;;;;;5.78;2.53;;;;;;;37.39;17.08;100001.44;5132336;27;20682;-76
2021/08/23 06:51:54;;;;;;;5.68;2.67;;;;;;;36.96;17.42;99999.25;5132265;27;20039;-75
2021/08/23 06:54:20;;;;;;;8.00;2.63;;;;;;;37.67;17.02;99997.03;5132806;27;20400;-77
2021/08/23 06:56:47;;;;;;;6.43;1.98;;;;;;;38.10;16.19;99999.03;5132355;27;20121;-76
2021/08/23 06:59:13;;;;;;;3.72;1.90;;;;;;;37.82;16.31;99993.31;5132084;27;20515;-78
2021/08/23 07:01:39;;;;;;;7.93;2.83;;;;;;;37.72;16.54;99993.34;5133176;27;20039;-78
2021/08/23 07:04:07;;;;;;;5.50;2.58;;;;;;;36.62;16.37;100007.47;5129941;27;20058;-83
2021/08/23 07:06:33;;;;;;;6.20;1.85;;;;;;;36.79;17.54;99998.78;5122857;27;20051;-73
2021/08/23 07:08:59;;;;;;;5.80;2.55;;;;;;;37.53;16.50;99988.56;5131025;27;20046;-78
2021/08/23 07:11:25;;;;;;;7.53;3.17;;;;;;;38.04;16.93;99983.66;5130612;27;20043;-78
2021/08/23 07:14:02;;;;;;;10.43;2.67;;;;;;;38.26;16.35;99990.53;5133090;27;20047;-77
2021/08/23 07:16:28;;;;;;;7.43;1.90;;;;;;;36.65;17.17;99990.34;5132872;27;20043;-75
2021/08/23 07:18:53;;;;;;;3.38;2.10;;;;;;;35.16;17.72;99986.88;5133367;27;20043;-76
2021/08/23 07:21:20;;;;;;;6.63;2.92;;;;;;;35.84;17.56;99993.97;5133341;27;20035;-74
2021/08/23 07:23:45;;;;;;;4.60;2.38;;;;;;;36.20;17.65;99984.78;5133395;27;20047;-77
2021/08/23 07:26:11;;;;;;;5.28;2.28;;;;;;;36.89;16.99;99983.03;5132782;27;20043;-76
2021/08/23 07:28:37;;;;;;;5.32;2.00;;;;;;;38.16;15.75;99986.81;5133875;27;20063;-83
2021/08/23 07:31:03;;;;;;;11.18;4.93;;;;;;;37.05;15.93;99992.03;5098583;27;20047;-79
2021/08/23 07:33:29;;;;;;;7.22;3.08;;;;;;;35.88;16.92;99980.47;5133792;27;20042;-83
2021/08/23 07:35:55;;;;;;;11.40;7.55;;;;;;;37.21;16.14;99981.69;5132307;27;20043;-79
2021/08/23 07:38:21;;;;;;;8.35;5.35;;;;;;;38.74;14.44;99979.38;5115029;27;20112;-79
2021/08/23 07:40:47;;;;;;;3.85;2.33;;;;;;;37.96;14.75;99976.00;5133229;27;20043;-82
2021/08/23 07:43:14;;;;;;;8.55;3.70;;;;;;;37.52;14.88;99978.69;5098175;27;20049;-83
2021/08/23 07:45:40;;;;;;;7.13;2.20;;;;;;;37.65;14.85;99971.63;5132239;27;20126;-83
2021/08/23 07:48:06;;;;;;;4.70;2.88;;;;;;;37.44;15.76;99965.50;5097977;27;20134;-79
2021/08/23 07:50:32;;;;;;;4.32;2.20;;;;;;;37.28;15.11;99966.75;5115250;27;20445;-79
2021/08/23 07:52:58;;;;;;;4.03;1.73;;;;;;;35.79;15.67;99972.78;5132661;27;20103;-78
2021/08/23 07:55:24;;;;;;;4.10;2.00;;;;;;;36.26;15.20;99964.34;5131801;27;20488;-82
2021/08/23 07:57:50;;;;;;;3.80;1.73;;;;;;;36.52;15.54;99964.25;5097888;27;20043;-80
2021/08/23 08:00:19;;;;;;;8.02;1.90;;;;;;;37.20;15.61;99969.00;5133382;27;20039;-80
2021/08/23 08:02:45;;;;;;;2.67;1.63;;;;;;;36.32;15.88;99974.25;5097810;27;20217;-79
2021/08/23 08:05:12;;;;;;;6.10;2.22;;;;;;;35.99;16.16;99965.59;5098783;27;20043;-81
2021/08/23 08:07:38;;;;;;;5.20;2.97;;;;;;;36.14;16.23;99961.09;5133888;27;20047;-77
2021/08/23 08:10:06;;;;;;;5.82;3.13;;;;;;;36.00;16.74;99960.91;5122516;27;20500;-80
2021/08/23 08:12:32;;;;;;;5.15;1.70;;;;;;;36.99;14.96;99964.78;5060778;28;20039;-82
2021/08/23 08:14:59;;;;;;;;;;;;;;;34.63;17.01;99971.41;5112132;28;20057;-78
2021/08/23 08:17:26;;;;;;;4.88;2.10;;;;;;;34.56;16.85;99953.50;5110746;28;20327;-77
2021/08/23 08:19:52;;;;;;;7.50;3.70;;;;;;;34.58;17.72;99957.66;5112092;28;20081;-81
2021/08/23 08:22:18;;;;;;;;;;;;;;;36.30;16.13;99950.84;5112344;28;20043;-79
2021/08/23 08:24:44;;;;;;;10.60;5.72;;;;;;;36.38;15.49;99961.31;5095323;28;19964;-81
2021/08/23 08:27:10;;;;;;;8.02;4.10;;;;;;;37.15;15.30;99951.66;5076677;28;20050;-80
2021/08/23 08:29:38;;;;;;;9.45;5.68;;;;;;;37.33;15.01;99952.91;5110577;28;20086;-81
2021/08/23 08:32:05;;;;;;;6.93;1.90;;;;;;;35.27;16.32;99947.25;5110983;28;20047;-84
2021/08/23 08:34:32;;;;;;;21.27;11.13;;;;;;;33.62;17.90;99957.75;5078160;28;20520;-82
2021/08/23 08:36:57;;;;;;;24.95;10.18;;;;;;;32.80;19.07;99959.81;5077533;28;20054;-79
2021/08/23 08:39:23;;;;;;;10.70;4.82;;;;;;;34.34;17.76;99951.78;5112161;28;20492;-80
2021/08/23 08:41:49;;;;;;;10.87;4.90;;;;;;;34.87;17.41;99957.16;5112757;28;20060;-85
2021/08/23 08:44:15;;;;;;;10.25;5.75;;;;;;;34.93;17.18;99952.50;5094764;28;20296;-79
2021/08/23 08:46:42;;;;;;;9.07;2.70;;;;;;;34.70;17.22;99962.06;5094077;28;20073;-79
2021/08/23 08:49:11;;;;;;;5.45;2.78;;;;;;;34.76;17.46;99956.28;5110657;28;20046;-82
2021/08/23 08:51:38;;;;;;;11.43;6.38;;;;;;;32.93;19.34;99956.66;5060517;28;20360;-82
2021/08/23 08:54:04;;;;;;;16.83;9.95;;;;;;;34.69;17.63;99968.66;5076951;28;20496;-83
2021/08/23 08:56:34;;;;;;;12.48;7.40;;;;;;;36.98;15.43;99954.88;5111542;28;20126;-81
2021/08/23 08:59:01;;;;;;;7.15;5.05;;;;;;;37.24;14.60;99956.28;5111898;28;20067;-79
2021/08/23 09:01:26;;;;;;;9.40;6.43;;;;;;;37.36;14.59;99964.22;5110793;28;20052;-79
2021/08/23 09:03:52;;;;;;;8.57;4.95;;;;;;;35.40;15.57;99964.34;5112456;28;20052;-77
2021/08/23 09:06:20;;;;;;;13.05;7.85;;;;;;;32.38;18.05;99970.31;5110306;28;20043;-80
2021/08/23 09:08:49;;;;;;;5.60;3.17;;;;;;;30.43;20.51;99962.53;5093443;28;20496;-82
2021/08/23 09:11:17;;;;;;;7.80;4.28;;;;;;;32.74;18.84;99962.50;5095804;28;20406;-78
2021/08/23 09:13:58;;;;;;;11.93;3.13;;;;;;;34.40;17.27;99958.16;5132390;28;20067;-81
2021/08/23 09:16:28;;;;;;;9.45;3.30;;;;;;;32.78;18.67;99956.53;5131509;28;20172;-79
2021/08/23 09:18:55;;;;;;;9.80;4.25;;;;;;;34.34;17.66;99960.91;5114214;28;20043;-80
2021/08/23 09:21:26;;;;;;;;;;;;;;;33.58;17.88;99959.38;5131440;28;20043;-80
2021/08/23 09:23:57;;;;;;;6.85;2.08;;;;;;;33.69;17.50;99961.06;5131046;28;19923;-82
2021/08/23 09:26:24;;;;;;;8.05;3.13;;;;;;;31.75;19.46;99962.38;5130780;28;20043;-81
2021/08/23 09:28:58;;;;;;;4.40;1.63;;;;;;;30.47;20.64;99970.00;5131498;27;20066;-78
2021/08/23 09:31:29;;;;;;;4.00;1.90;;;;;;;30.24;21.06;99972.81;5133153;27;20050;-79
2021/08/23 09:34:00;;;;;;;4.72;2.53;;;;;;;31.93;20.07;99972.19;5134843;27;20495;-83
2021/08/23 09:36:27;;;;;;;7.97;1.80;;;;;;;32.81;18.79;99962.31;5135343;27;20066;-79
2021/08/23 09:39:05;;;;;;;8.50;2.97;;;;;;;31.71;19.47;99971.34;5135222;27;20051;-83
2021/08/23 09:41:33;;;;;;;7.18;3.05;;;;;;;32.60;19.53;99966.72;5135994;27;20046;-76
2021/08/23 09:44:04;;;;;;;7.90;4.88;;;;;;;31.80;19.53;99963.53;5136400;27;20039;-78
2021/08/23 09:46:34;;;;;;;4.78;1.90;;;;;;;32.10;19.32;99969.41;5136786;27;20043;-80
2021/08/23 09:49:03;;;;;;;7.05;2.90;;;;;;;32.99;18.84;99958.34;5136094;27;20120;-79
2021/08/23 09:51:43;;;;;;;4.53;1.77;;;;;;;34.56;17.24;99962.59;5117624;27;20106;-78
2021/08/23 09:54:14;;;;;;;3.67;2.10;;;;;;;34.83;16.66;99967.84;5134356;27;20058;-81
2021/08/23 09:56:53;;;;;;;6.50;1.50;;;;;;;32.70;18.24;99974.19;5135336;27;20400;-81
2021/08/23 09:59:19;;;;;;;5.25;1.60;;;;;;;30.69;20.01;99976.72;5134076;27;20054;-83
2021/08/23 10:01:46;;;;;;;2.85;1.52;;;;;;;30.28;21.08;99973.97;5132437;27;20051;-78
2021/08/23 10:04:13;;;;;;;2.83;1.50;;;;;;;30.37;20.84;99972.53;5133548;27;20043;-79
2021/08/23 10:06:39;;;;;;;;;;;;;;;31.59;19.97;99972.25;5135435;27;20035;-80
2021/08/23 10:09:06;;;;;;;4.18;1.65;;;;;;;32.46;18.89;99970.94;5114491;27;19919;-76
2021/08/23 10:11:32;;;;;;;4.15;1.50;;;;;;;32.07;19.00;99978.13;5131734;27;20080;-76
2021/08/23 10:13:59;;;;;;;6.32;1.70;;;;;;;31.80;19.77;99979.94;5133855;27;20046;-75
2021/08/23 10:16:25;;;;;;;10.65;6.85;;;;;;;31.02;20.07;99973.22;5133861;27;20077;-75
2021/08/23 10:18:52;;;;;;;2.72;1.60;;;;;;;30.85;20.34;99966.91;5135040;27;20066;-81
2021/08/23 10:21:19;;;;;;;5.35;2.00;;;;;;;31.34;20.11;99967.22;5133404;27;20046;-79
2021/08/23 10:23:45;;;;;;;;;;;;;;;31.62;19.32;99974.47;5134802;27;20487;-80
2021/08/23 10:26:11;;;;;;;3.33;1.10;;;;;;;31.36;18.54;99975.97;5133250;27;19915;-78
2021/08/23 10:28:38;;;;;;;4.25;1.20;;;;;;;30.65;19.82;99970.91;5134941;27;20306;-82
2021/08/23 10:31:10;;;;;;;3.63;1.50;;;;;;;31.53;19.09;99964.19;5133561;27;20495;-78
2021/08/23 10:33:39;;;;;;;4.30;1.33;;;;;;;31.86;19.05;99965.25;5134048;27;20193;-80
2021/08/23 10:36:07;;;;;;;10.98;2.63;;;;;;;31.91;19.79;99954.38;5134757;27;20043;-80
2021/08/23 10:38:33;;;;;;;3.13;1.40;;;;;;;31.95;19.59;99958.25;5126548;27;20043;-80
2021/08/23 10:41:12;;;;;;;4.88;1.60;;;;;;;31.64;19.46;99960.59;5116283;27;20083;-82
2021/08/23 10:43:43;;;;;;;8.18;1.73;;;;;;;31.62;19.55;99968.19;5111276;27;20043;-82
2021/08/23 10:46:25;;;;;;;7.13;2.40;;;;;;;31.70;18.95;99962.31;5129171;27;20129;-84
2021/08/23 10:48:52;;;;;;;6.03;3.47;;;;;;;30.95;19.89;99969.81;5075921;28;20043;-79
2021/08/23 10:51:30;;;;;;;6.22;2.08;;;;;;;30.28;20.48;99963.91;5132022;27;20375;-80
2021/08/23 10:53:57;;;;;;;14.82;3.80;;;;;;;29.96;21.79;99963.50;5128869;27;20051;-81
2021/08/23 10:56:33;;;;;;;2.67;1.45;;;;;;;29.76;20.72;99955.66;5114160;28;20044;-80
2021/08/23 10:59:11;;;;;;;3.83;1.45;;;;;;;29.01;21.82;99958.78;5118536;27;20035;-81
2021/08/23 11:01:37;;;;;;;6.75;1.20;;;;;;;28.82;22.60;99958.00;5134920;27;20448;-79
2021/08/23 11:04:05;;;;;;;4.45;1.48;;;;;;;28.72;22.49;99958.59;5134439;27;20043;-84
2021/08/23 11:06:32;;;;;;;1.65;0.88;;;;;;;28.00;21.57;99963.84;5095373;27;20063;-79
2021/08/23 11:09:12;;;;;;;7.13;2.30;;;;;;;27.71;21.87;99964.34;5135452;27;20043;-80
2021/08/23 11:11:40;;;;;;;3.60;1.50;;;;;;;27.70;22.71;99959.13;5119030;27;20039;-80
2021/08/23 11:14:19;;;;;;;10.13;4.43;;;;;;;27.27;23.76;99961.56;5109724;28;20128;-76
2021/08/23 11:16:52;;;;;;;10.65;3.67;;;;;;;27.58;23.86;99962.59;5124142;27;20035;-76
2021/08/23 11:19:24;;;;;;;14.18;6.13;;;;;;;27.46;23.82;99958.13;5133434;27;20130;-76
2021/08/23 11:21:58;;;;;;;8.40;1.77;;;;;;;27.04;24.40;99956.75;5133431;27;20043;-78
2021/08/23 11:24:29;;;;;;;6.65;3.33;;;;;;;26.85;25.15;99957.72;5133146;27;20039;-79
2021/08/23 11:27:00;;;;;;;9.65;4.70;;;;;;;26.00;25.54;99951.38;5115232;27;20070;-77
2021/08/23 11:29:27;;;;;;;3.58;1.38;;;;;;;25.74;26.73;99952.28;5133521;27;20086;-76